createdAt,value
2024-02-11T00:01:43.910Z,10.70
2024-02-11T00:06:48.548Z,12.30
2024-02-11T00:11:52.634Z,9.40
2024-02-11T00:17:01.322Z,8.00
2024-02-11T00:22:04.534Z,9.30
2024-02-11T00:27:07.295Z,7.80
2024-02-11T00:32:10.024Z,9.80
2024-02-11T00:37:12.870Z,13.40
2024-02-11T00:42:20.802Z,8.00
2024-02-11T00:47:24.114Z,8.60
2024-02-11T00:52:26.878Z,8.30
2024-02-11T00:57:29.647Z,9.70
2024-02-11T01:02:32.670Z,11.70
2024-02-11T01:07:37.815Z,11.70
2024-02-11T01:12:41.143Z,10.20
2024-02-11T01:17:44.721Z,9.80
2024-02-11T01:22:48.882Z,10.60
2024-02-11T01:27:51.784Z,26.90
2024-02-11T01:32:55.692Z,14.50
2024-02-11T01:38:01.883Z,8.50
2024-02-11T01:43:11.298Z,9.00
2024-02-11T01:48:14.652Z,8.90
2024-02-11T01:53:17.633Z,9.80
2024-02-11T01:58:20.901Z,9.20
2024-02-11T02:03:25.255Z,9.20
2024-02-11T02:08:27.964Z,7.40
2024-02-11T02:13:30.646Z,9.70
2024-02-11T02:18:36.117Z,10.50
2024-02-11T02:23:39.113Z,9.10
2024-02-11T02:28:42.608Z,10.30
2024-02-11T02:33:47.219Z,8.20
2024-02-11T02:38:50.173Z,7.80
2024-02-11T02:43:52.940Z,9.40
2024-02-11T02:48:56.020Z,8.00
2024-02-11T02:53:58.741Z,8.00
2024-02-11T02:59:11.224Z,8.30
2024-02-11T03:04:14.091Z,6.30
2024-02-11T03:09:17.138Z,11.40
2024-02-11T03:14:21.043Z,7.80
2024-02-11T03:19:23.888Z,9.50
2024-02-11T03:24:26.594Z,9.70
2024-02-11T03:29:29.373Z,7.20
2024-02-11T03:34:32.738Z,7.70
2024-02-11T03:39:37.189Z,6.20
2024-02-11T03:44:39.935Z,7.70
2024-02-11T03:49:42.779Z,6.70
2024-02-11T03:54:45.528Z,8.50
2024-02-11T03:59:48.720Z,7.80
2024-02-11T04:04:52.957Z,6.10
2024-02-11T04:09:55.785Z,6.20
2024-02-11T04:14:59.901Z,8.30
2024-02-11T04:20:02.980Z,9.70
2024-02-11T04:25:08.796Z,7.80
2024-02-11T04:30:16.849Z,9.80
2024-02-11T04:35:20.933Z,9.30
2024-02-11T04:40:27.864Z,7.80
2024-02-11T04:45:30.735Z,6.80
2024-02-11T04:50:36.548Z,7.10
2024-02-11T04:55:45.592Z,8.70
2024-02-11T05:00:50.371Z,8.90
2024-02-11T05:05:54.175Z,7.70
2024-02-11T05:10:58.073Z,7.80
2024-02-11T05:16:04.306Z,8.30
2024-02-11T05:21:08.344Z,8.90
2024-02-11T05:26:13.713Z,6.30
2024-02-11T05:31:19.537Z,5.70
2024-02-11T05:36:22.643Z,7.30
2024-02-11T05:41:25.474Z,6.10
2024-02-11T05:46:28.323Z,8.60
2024-02-11T05:51:31.119Z,5.90
2024-02-11T05:56:34.301Z,4.30
2024-02-11T06:01:38.386Z,8.00
2024-02-11T06:06:41.167Z,8.40
2024-02-11T06:11:44.058Z,6.20
2024-02-11T06:16:46.776Z,9.80
2024-02-11T06:21:49.465Z,6.70
2024-02-11T06:26:53.236Z,7.80
2024-02-11T06:31:56.109Z,7.10
2024-02-11T06:36:59.226Z,7.90
2024-02-11T06:42:06.810Z,7.10
2024-02-11T06:47:12.488Z,5.50
2024-02-11T06:52:15.204Z,7.50
2024-02-11T06:57:18.881Z,5.60
2024-02-11T07:02:22.056Z,7.20
2024-02-11T07:07:25.852Z,6.60
2024-02-11T07:12:28.626Z,8.50
2024-02-11T07:17:31.840Z,7.50
2024-02-11T07:22:35.645Z,6.50
2024-02-11T07:27:38.741Z,6.60
2024-02-11T07:32:44.593Z,8.70
2024-02-11T07:37:48.011Z,7.60
2024-02-11T07:42:51.077Z,5.00
2024-02-11T07:47:53.900Z,7.90
2024-02-11T07:52:57.204Z,7.60
2024-02-11T07:58:03.414Z,7.00
2024-02-11T08:03:09.609Z,6.10
2024-02-11T08:08:12.984Z,6.70
2024-02-11T08:13:15.824Z,7.20
2024-02-11T08:18:18.862Z,6.20
2024-02-11T08:23:24.368Z,7.80
2024-02-11T08:28:27.352Z,7.40
2024-02-11T08:33:30.555Z,5.30
2024-02-11T08:38:33.671Z,8.60
2024-02-11T08:43:36.901Z,6.50
2024-02-11T08:48:39.727Z,6.70
2024-02-11T08:53:43.031Z,7.90
2024-02-11T08:58:46.581Z,6.60
2024-02-11T09:03:49.708Z,7.40
2024-02-11T09:08:54.100Z,5.40
2024-02-11T09:13:58.810Z,8.80
2024-02-11T09:19:01.813Z,6.60
2024-02-11T09:24:05.081Z,7.10
2024-02-11T09:29:09.211Z,5.00
2024-02-11T09:34:12.343Z,6.60
2024-02-11T09:39:15.067Z,5.60
2024-02-11T09:44:27.195Z,5.80
2024-02-11T09:49:31.924Z,4.40
2024-02-11T09:54:35.873Z,7.50
2024-02-11T09:59:38.612Z,7.40
2024-02-11T10:04:43.404Z,6.20
2024-02-11T10:09:47.468Z,6.80
2024-02-11T10:14:54.081Z,6.70
2024-02-11T10:19:56.986Z,7.20
2024-02-11T10:24:59.685Z,5.80
2024-02-11T10:30:02.553Z,5.90
2024-02-11T10:35:06.034Z,8.70
2024-02-11T10:40:13.118Z,6.60
2024-02-11T10:45:16.141Z,4.90
2024-02-11T10:50:19.287Z,5.90
2024-02-11T10:55:23.552Z,7.80
2024-02-11T11:00:28.436Z,6.80
2024-02-11T11:05:34.296Z,7.70
2024-02-11T11:10:38.426Z,7.50
2024-02-11T11:15:43.896Z,8.30
2024-02-11T11:20:56.490Z,8.90
2024-02-11T11:25:59.775Z,8.80
2024-02-11T11:31:03.835Z,6.80
2024-02-11T11:36:07.374Z,7.40
2024-02-11T11:41:11.905Z,6.80
2024-02-11T11:46:15.832Z,6.80
2024-02-11T11:51:20.879Z,6.10
2024-02-11T11:56:24.626Z,6.90
2024-02-11T12:01:27.505Z,7.10
2024-02-11T12:06:30.460Z,6.90
2024-02-11T12:11:33.649Z,7.30
2024-02-11T12:16:36.522Z,8.30
2024-02-11T12:21:39.328Z,7.20
2024-02-11T12:26:42.618Z,8.20
2024-02-11T12:31:45.333Z,6.60
2024-02-11T12:36:48.297Z,5.30
2024-02-11T12:41:51.007Z,7.50
2024-02-11T12:46:54.103Z,6.20
2024-02-11T12:51:58.121Z,5.80
2024-02-11T12:57:01.063Z,6.90
2024-02-11T13:02:03.876Z,6.80
2024-02-11T13:07:07.208Z,6.40
2024-02-11T13:12:10.877Z,8.00
2024-02-11T13:17:14.221Z,6.20
2024-02-11T13:22:16.966Z,4.90
2024-02-11T13:27:19.664Z,6.20
2024-02-11T13:32:22.649Z,6.40
2024-02-11T13:37:25.652Z,7.60
2024-02-11T13:42:29.426Z,6.70
2024-02-11T13:47:32.592Z,7.40
2024-02-11T13:52:36.183Z,6.70
2024-02-11T13:57:38.904Z,8.60
2024-02-11T14:02:41.726Z,12.00
2024-02-11T14:07:45.936Z,7.10
2024-02-11T14:12:50.256Z,5.30
2024-02-11T14:17:53.461Z,7.00
2024-02-11T14:22:56.920Z,6.00
2024-02-11T14:27:59.721Z,7.40
2024-02-11T14:33:02.420Z,6.20
2024-02-11T14:38:08.303Z,7.20
2024-02-11T14:43:11.226Z,7.70
2024-02-11T14:48:15.127Z,8.70
2024-02-11T14:53:18.342Z,8.30
2024-02-11T14:58:24.316Z,10.00
2024-02-11T15:03:30.488Z,8.00
2024-02-11T15:08:34.567Z,8.20
2024-02-11T15:13:38.141Z,11.30
2024-02-11T15:18:41.365Z,7.40
2024-02-11T15:23:44.119Z,9.40
2024-02-11T15:28:46.977Z,7.60
2024-02-11T15:33:49.814Z,8.40
2024-02-11T15:38:52.852Z,9.60
2024-02-11T15:43:55.636Z,9.50
2024-02-11T15:48:58.585Z,9.80
2024-02-11T15:54:01.525Z,9.90
2024-02-11T15:59:04.665Z,9.80
2024-02-11T16:04:09.941Z,8.90
2024-02-11T16:09:12.880Z,7.30
2024-02-11T16:14:16.236Z,15.30
2024-02-11T16:19:19.112Z,10.10
2024-02-11T16:24:21.864Z,12.70
2024-02-11T16:29:24.564Z,10.00
2024-02-11T16:34:27.370Z,11.90
2024-02-11T16:39:31.791Z,12.50
2024-02-11T16:44:36.267Z,14.00
2024-02-11T16:49:39.161Z,13.40
2024-02-11T16:54:44.282Z,15.30
2024-02-11T16:59:47.560Z,11.30
2024-02-11T17:04:51.354Z,17.80
2024-02-11T17:09:55.125Z,18.40
2024-02-11T17:14:57.767Z,12.50
2024-02-11T17:20:00.650Z,14.00
2024-02-11T17:25:03.709Z,15.10
2024-02-11T17:30:07.892Z,19.10
2024-02-11T17:35:12.644Z,24.90
2024-02-11T17:40:16.978Z,12.30
2024-02-11T17:45:21.590Z,19.50
2024-02-11T17:50:24.359Z,19.80
2024-02-11T17:55:29.477Z,13.80
2024-02-11T18:00:42.152Z,10.40
2024-02-11T18:05:54.384Z,9.20
2024-02-11T18:10:57.234Z,9.10
2024-02-11T18:15:59.972Z,7.60
2024-02-11T18:21:03.117Z,10.40
2024-02-11T18:26:09.542Z,11.50
2024-02-11T18:31:17.375Z,9.40
2024-02-11T18:36:20.619Z,9.10
2024-02-11T18:41:23.616Z,8.30
2024-02-11T18:46:28.147Z,7.80
2024-02-11T18:51:37.318Z,7.70
2024-02-11T18:56:40.663Z,6.60
2024-02-11T19:01:43.572Z,6.60
2024-02-11T19:06:47.555Z,8.20
2024-02-11T19:11:51.010Z,6.30
2024-02-11T19:16:56.826Z,9.40
2024-02-11T19:22:04.333Z,7.50
2024-02-11T19:27:14.182Z,9.40
2024-02-11T19:32:18.387Z,8.20
2024-02-11T19:37:21.823Z,7.70
2024-02-11T19:42:24.625Z,8.00
2024-02-11T19:47:27.966Z,10.40
2024-02-11T19:52:31.118Z,9.00
2024-02-11T19:57:33.817Z,7.60
2024-02-11T20:02:36.527Z,8.70
2024-02-11T20:07:39.833Z,9.60
2024-02-11T20:12:46.872Z,8.90
2024-02-11T20:17:50.171Z,8.60
2024-02-11T20:22:52.996Z,8.50
2024-02-11T20:27:56.770Z,8.50
2024-02-11T20:33:01.064Z,9.30
2024-02-11T20:38:03.920Z,9.10
2024-02-11T20:43:06.589Z,8.00
2024-02-11T20:48:14.343Z,10.60
2024-02-11T20:53:17.973Z,9.70
2024-02-11T20:58:21.006Z,9.40
2024-02-11T21:03:23.864Z,9.60
2024-02-11T21:08:26.865Z,8.10
2024-02-11T21:13:29.747Z,8.30
2024-02-11T21:18:36.752Z,10.30
2024-02-11T21:23:41.373Z,12.80
2024-02-11T21:28:53.106Z,10.00
2024-02-11T21:33:56.248Z,7.20
2024-02-11T21:38:59.635Z,8.70
2024-02-11T21:44:03.525Z,10.20
2024-02-11T21:49:11.187Z,9.80
2024-02-11T21:54:18.127Z,9.20
2024-02-11T21:59:22.719Z,11.00
2024-02-11T22:04:26.110Z,9.80
2024-02-11T22:09:28.992Z,10.60
2024-02-11T22:14:31.967Z,9.10
2024-02-11T22:19:34.915Z,9.90
2024-02-11T22:24:38.261Z,9.20
2024-02-11T22:29:45.522Z,7.80
2024-02-11T22:34:48.244Z,9.30
2024-02-11T22:39:51.526Z,7.80
2024-02-11T22:44:54.496Z,7.10
2024-02-11T22:49:57.722Z,7.40
2024-02-11T22:55:01.125Z,8.20
2024-02-11T23:00:24.439Z,8.00
2024-02-11T23:05:27.823Z,8.10
2024-02-11T23:10:34.140Z,9.00
2024-02-11T23:15:37.004Z,10.20
2024-02-11T23:20:39.698Z,8.90
2024-02-11T23:25:42.528Z,8.40
2024-02-11T23:30:45.357Z,9.40
2024-02-11T23:35:48.214Z,6.30
2024-02-11T23:40:51.420Z,8.80
2024-02-11T23:45:54.315Z,8.50
2024-02-11T23:51:00.804Z,6.90
2024-02-11T23:56:04.123Z,6.20
